Time;durP1;ratioP1;P1;durP2;ratioP2;P2;SDS_P1;SDS_P2;PMS_P1;PMS_P2;Temp;Humidity;BMP_temperature;BMP_pressure;BME280_temperature;BME280_humidity;BME280_pressure;Samples;Min_cycle;Max_cycle;Signal;HPM_P1;HPM_P2
2022/02/18 00:01:04;;;;;;;20.40;3.58;;;;;;;6.25;79.92;101120.16;5013396;28;20034;-77
2022/02/18 00:03:31;;;;;;;14.43;2.70;;;;;;;6.20;80.53;101109.91;5013184;28;20224;-77
2022/02/18 00:05:57;;;;;;;16.15;2.78;;;;;;;6.22;80.71;101121.22;5013751;28;20034;-78
2022/02/18 00:08:24;;;;;;;14.10;2.22;;;;;;;6.20;80.93;101117.00;5013343;28;20117;-77
2022/02/18 00:10:50;;;;;;;11.73;2.22;;;;;;;6.19;81.35;101105.56;5011970;28;20108;-78
2022/02/18 00:13:16;;;;;;;14.23;2.17;;;;;;;6.19;81.34;101110.84;5013468;28;20038;-77
2022/02/18 00:15:41;;;;;;;19.88;2.80;;;;;;;6.17;81.69;101094.28;5013234;28;20041;-77
2022/02/18 00:18:07;;;;;;;14.23;2.33;;;;;;;6.14;81.97;101090.03;5013545;28;20061;-77
2022/02/18 00:20:34;;;;;;;26.10;2.70;;;;;;;6.16;81.86;101103.97;5013509;28;20078;-77
2022/02/18 00:23:05;;;;;;;16.25;2.60;;;;;;;6.20;81.96;101101.16;5013244;28;20374;-77
2022/02/18 00:25:31;;;;;;;20.57;2.97;;;;;;;6.22;81.98;101096.59;5012891;28;20444;-79
2022/02/18 00:27:57;;;;;;;14.75;2.42;;;;;;;6.16;82.31;101090.78;5013146;28;20026;-78
2022/02/18 00:30:22;;;;;;;12.70;2.60;;;;;;;6.18;82.36;101093.34;5013111;28;20431;-78
2022/02/18 00:32:48;;;;;;;14.52;2.53;;;;;;;6.18;82.49;101094.16;5012948;28;20038;-78
2022/02/18 00:35:19;;;;;;;13.15;2.88;;;;;;;6.22;82.60;101078.09;5012996;28;20430;-78
2022/02/18 00:37:48;;;;;;;18.70;3.72;;;;;;;6.24;82.68;101084.13;5013158;28;20136;-78
2022/02/18 00:40:15;;;;;;;15.43;2.75;;;;;;;6.24;82.77;101087.63;5012398;28;20115;-78
2022/02/18 00:42:40;;;;;;;24.25;3.35;;;;;;;6.24;82.96;101089.41;5012851;28;20120;-78
2022/02/18 00:45:07;;;;;;;23.95;4.25;;;;;;;6.23;82.97;101087.72;5012383;28;20082;-78
2022/02/18 00:47:32;;;;;;;17.90;3.60;;;;;;;6.22;83.11;101084.22;5012287;28;20095;-78
2022/02/18 00:49:58;;;;;;;16.00;3.53;;;;;;;6.22;83.22;101081.59;5011502;28;20105;-78
2022/02/18 00:52:23;;;;;;;22.55;3.42;;;;;;;6.23;83.25;101085.09;5012666;28;20335;-78
2022/02/18 00:54:49;;;;;;;28.92;4.50;;;;;;;6.24;83.19;101076.19;5012460;28;20029;-78
2022/02/18 00:57:16;;;;;;;23.92;4.07;;;;;;;6.23;83.10;101078.00;5012476;28;20490;-78
2022/02/18 00:59:41;;;;;;;22.98;3.17;;;;;;;6.26;83.08;101067.22;5012157;28;20038;-79
2022/02/18 01:02:07;;;;;;;24.00;3.28;;;;;;;6.29;83.08;101056.44;5011096;28;20509;-78
2022/02/18 01:04:32;;;;;;;21.45;3.58;;;;;;;6.28;83.13;101046.81;5012311;28;20038;-79
2022/02/18 01:06:58;;;;;;;25.83;4.10;;;;;;;6.27;83.06;101050.41;5012704;28;20148;-79
2022/02/18 01:09:23;;;;;;;30.17;4.13;;;;;;;6.27;83.32;101057.47;5012298;28;20042;-78
2022/02/18 01:11:48;;;;;;;24.23;3.85;;;;;;;6.25;83.46;101051.47;5012127;28;20109;-78
2022/02/18 01:14:14;;;;;;;20.75;2.85;;;;;;;6.27;83.11;101046.91;5012419;28;20426;-78
2022/02/18 01:16:39;;;;;;;19.83;3.03;;;;;;;6.30;83.02;101044.91;5012297;28;20433;-78
2022/02/18 01:19:04;;;;;;;18.58;3.33;;;;;;;6.36;82.22;101043.66;5012184;28;20109;-78
2022/02/18 01:21:30;;;;;;;26.48;4.10;;;;;;;6.38;82.23;101041.75;4994379;28;20066;-78
2022/02/18 01:23:55;;;;;;;26.00;3.35;;;;;;;6.40;82.31;101039.81;5010847;28;20085;-79
2022/02/18 01:26:20;;;;;;;23.15;3.60;;;;;;;6.42;82.08;101035.28;5012195;28;20088;-79
2022/02/18 01:28:46;;;;;;;21.13;3.75;;;;;;;6.46;81.80;101033.28;5012348;28;20069;-79
2022/02/18 01:31:13;;;;;;;21.70;3.63;;;;;;;6.49;82.04;101035.69;5011997;28;20034;-79
2022/02/18 01:33:39;;;;;;;23.75;3.05;;;;;;;6.45;82.14;101028.94;5012095;28;20096;-77
2022/02/18 01:36:04;;;;;;;23.48;3.83;;;;;;;6.41;82.64;101019.53;5011914;28;20034;-79
2022/02/18 01:38:30;;;;;;;28.60;4.43;;;;;;;6.43;83.40;101018.47;5011797;28;20037;-78
2022/02/18 01:40:56;;;;;;;40.30;4.78;;;;;;;6.46;83.88;101010.31;5010814;28;20558;-78
2022/02/18 01:43:21;;;;;;;30.95;4.57;;;;;;;6.45;84.12;101007.78;5012155;28;20469;-78
2022/02/18 01:45:47;;;;;;;32.13;4.45;;;;;;;6.42;84.23;101006.22;5012180;28;20074;-78
2022/02/18 01:48:13;;;;;;;26.00;3.88;;;;;;;6.37;84.97;100989.00;5011470;28;20049;-77
2022/02/18 01:50:39;;;;;;;36.90;5.57;;;;;;;6.34;85.09;100984.75;5011822;28;20466;-77
2022/02/18 01:53:05;;;;;;;24.92;4.40;;;;;;;6.31;85.21;100972.59;5026978;28;20041;-78
2022/02/18 01:55:31;;;;;;;36.53;5.03;;;;;;;6.29;85.51;100963.09;5011286;28;20426;-76
2022/02/18 01:57:58;;;;;;;43.47;5.38;;;;;;;6.27;86.08;100960.56;5011382;28;20034;-77
2022/02/18 02:00:26;;;;;;;23.27;3.70;;;;;;;6.24;86.43;100936.16;5010150;28;20378;-77
2022/02/18 02:02:53;;;;;;;39.30;5.47;;;;;;;6.20;86.63;100924.97;5011268;28;20068;-77
2022/02/18 02:05:20;;;;;;;32.72;4.35;;;;;;;6.16;87.04;100920.84;5011218;28;20078;-78
2022/02/18 02:07:46;;;;;;;33.90;4.75;;;;;;;6.15;87.44;100925.28;5010990;28;20038;-78
2022/02/18 02:10:14;;;;;;;31.48;4.38;;;;;;;6.16;87.43;100936.69;5011110;28;20048;-78
2022/02/18 02:12:40;;;;;;;30.45;4.70;;;;;;;6.13;87.96;100911.31;5010459;28;20030;-77
2022/02/18 02:15:10;;;;;;;35.60;4.43;;;;;;;6.14;87.91;100902.47;5009427;28;20096;-79
2022/02/18 02:17:36;;;;;;;34.67;4.63;;;;;;;6.13;88.07;100899.91;5011534;28;20462;-77
2022/02/18 02:20:06;;;;;;;24.95;5.03;;;;;;;6.11;88.63;100896.56;5026180;28;20065;-77
2022/02/18 02:22:32;;;;;;;33.17;4.53;;;;;;;6.08;88.75;100889.69;5011013;28;20477;-77
2022/02/18 02:24:59;;;;;;;36.95;5.32;;;;;;;6.10;89.05;100892.22;5010616;28;20098;-78
2022/02/18 02:27:25;;;;;;;44.00;5.60;;;;;;;6.08;89.22;100881.75;5010936;28;20180;-78
2022/02/18 02:29:51;;;;;;;41.83;5.15;;;;;;;6.08;89.49;100873.00;5010977;28;20390;-78
2022/02/18 02:32:18;;;;;;;31.58;5.45;;;;;;;6.05;90.20;100863.50;5009227;28;20030;-77
2022/02/18 02:34:44;;;;;;;33.67;5.43;;;;;;;6.04;90.47;100864.44;5011518;28;20093;-77
2022/02/18 02:37:10;;;;;;;51.35;6.05;;;;;;;6.05;90.70;100845.00;5010934;28;20078;-77
2022/02/18 02:39:36;;;;;;;34.58;5.57;;;;;;;6.04;90.96;100838.00;5010626;28;20075;-78
2022/02/18 02:42:03;;;;;;;42.80;5.35;;;;;;;6.04;91.38;100838.00;5010424;28;20065;-78
2022/02/18 02:44:29;;;;;;;36.30;5.25;;;;;;;6.05;92.08;100839.72;5010128;28;20057;-76
2022/02/18 02:46:55;;;;;;;38.25;5.63;;;;;;;6.07;92.22;100826.41;5010273;28;20041;-79
2022/02/18 02:49:21;;;;;;;42.65;7.30;;;;;;;6.10;92.48;100828.81;5010469;28;20026;-79
2022/02/18 02:51:47;;;;;;;41.38;6.80;;;;;;;6.11;92.69;100827.88;5010509;28;20041;-79
2022/02/18 02:54:12;;;;;;;40.50;4.75;;;;;;;6.07;93.16;100813.19;5010588;28;20112;-78
2022/02/18 02:56:38;;;;;;;50.58;6.47;;;;;;;6.05;93.31;100797.44;5010471;28;20081;-77
2022/02/18 02:59:04;;;;;;;42.60;5.60;;;;;;;6.01;93.62;100790.69;4993042;28;20052;-77
2022/02/18 03:01:30;;;;;;;48.17;5.57;;;;;;;6.00;93.77;100795.16;5010648;28;20034;-78
2022/02/18 03:03:55;;;;;;;49.63;5.70;;;;;;;5.99;94.20;100782.88;5010919;28;20407;-79
2022/02/18 03:06:21;;;;;;;41.28;5.00;;;;;;;5.97;94.23;100771.59;5010538;28;20033;-78
2022/02/18 03:08:46;;;;;;;36.30;5.90;;;;;;;5.98;94.43;100767.16;5010667;28;20045;-78
2022/02/18 03:11:14;;;;;;;49.83;5.30;;;;;;;5.98;94.45;100770.63;5025916;28;20104;-77
2022/02/18 03:13:40;;;;;;;49.15;7.13;;;;;;;5.95;94.32;100764.69;5009355;28;20030;-77
2022/02/18 03:16:05;;;;;;;38.13;5.53;;;;;;;5.95;94.69;100751.50;5010576;28;20058;-76
2022/02/18 03:18:31;;;;;;;51.42;7.40;;;;;;;5.90;94.92;100751.81;5010588;28;20091;-78
2022/02/18 03:20:56;;;;;;;43.58;7.00;;;;;;;5.89;95.02;100733.44;5010577;28;20096;-79
2022/02/18 03:23:22;;;;;;;46.45;6.30;;;;;;;5.87;95.30;100725.66;5012300;28;20029;-77
2022/02/18 03:25:47;;;;;;;46.47;7.53;;;;;;;5.85;95.57;100709.06;5014442;28;20034;-77
2022/02/18 03:28:13;;;;;;;40.85;6.00;;;;;;;5.83;95.51;100705.69;5014646;28;20053;-77
2022/02/18 03:30:38;;;;;;;38.65;6.40;;;;;;;5.84;95.78;100691.53;5014457;28;20037;-77
2022/02/18 03:33:04;;;;;;;51.72;6.40;;;;;;;5.83;96.16;100681.94;5014426;28;20041;-76
2022/02/18 03:35:29;;;;;;;43.17;6.40;;;;;;;5.81;96.16;100674.13;5012882;28;20038;-79
2022/02/18 03:37:55;;;;;;;53.63;6.57;;;;;;;5.78;96.18;100658.50;5014741;28;20058;-77
2022/02/18 03:40:20;;;;;;;48.25;7.57;;;;;;;5.76;96.34;100646.34;5013884;28;20030;-78
2022/02/18 03:42:46;;;;;;;45.80;6.75;;;;;;;5.75;96.52;100639.41;5014510;28;20091;-78
2022/02/18 03:45:12;;;;;;;48.10;8.18;;;;;;;5.73;96.82;100609.63;5013906;28;20457;-77
2022/02/18 03:47:37;;;;;;;58.55;6.97;;;;;;;5.71;96.84;100593.91;5029485;28;20120;-77
2022/02/18 03:50:03;;;;;;;42.22;6.07;;;;;;;5.69;96.94;100577.34;5013894;28;20172;-77
2022/02/18 03:52:29;;;;;;;41.85;6.18;;;;;;;5.67;96.92;100573.13;5014521;28;20406;-77
2022/02/18 03:54:54;;;;;;;47.17;6.95;;;;;;;5.68;97.68;100569.53;5012645;28;20034;-76
2022/02/18 03:57:19;;;;;;;39.92;6.13;;;;;;;5.69;98.04;100571.19;5014046;28;20076;-79
2022/02/18 03:59:45;;;;;;;52.35;6.82;;;;;;;5.70;98.10;100557.06;5013983;28;20030;-79
2022/02/18 04:02:10;;;;;;;47.20;6.65;;;;;;;5.69;98.23;100561.50;5013945;28;20542;-78
2022/02/18 04:04:36;;;;;;;46.95;6.43;;;;;;;5.69;98.16;100565.91;5014000;28;20026;-79
2022/02/18 04:07:02;;;;;;;50.40;5.90;;;;;;;5.71;98.47;100558.75;5013805;28;20040;-78
2022/02/18 04:09:28;;;;;;;56.28;6.53;;;;;;;5.70;98.10;100547.31;5013528;28;20029;-77
2022/02/18 04:11:53;;;;;;;51.15;5.55;;;;;;;5.71;98.27;100540.28;5014033;28;20378;-77
2022/02/18 04:14:19;;;;;;;39.45;5.70;;;;;;;5.73;98.14;100556.81;5013585;28;20116;-77
2022/02/18 04:16:44;;;;;;;48.42;6.13;;;;;;;5.76;98.39;100572.44;5013643;28;20414;-77
2022/02/18 04:19:09;;;;;;;48.00;6.13;;;;;;;5.75;98.14;100558.41;5013760;28;20038;-77
2022/02/18 04:21:35;;;;;;;47.58;6.32;;;;;;;5.77;98.45;100539.81;5013614;28;20030;-77
2022/02/18 04:24:00;;;;;;;47.75;6.93;;;;;;;5.78;98.36;100546.78;5012254;28;20088;-77
2022/02/18 04:26:25;;;;;;;45.75;6.10;;;;;;;5.79;98.33;100541.38;5012992;28;20395;-76
2022/02/18 04:28:51;;;;;;;51.55;6.05;;;;;;;5.79;98.23;100536.09;5013648;28;20379;-77
2022/02/18 04:31:16;;;;;;;53.00;6.82;;;;;;;5.85;98.35;100512.81;5013512;28;20073;-79
2022/02/18 04:33:42;;;;;;;44.83;7.50;;;;;;;5.84;98.05;100498.78;5013333;28;20041;-79
2022/02/18 04:36:07;;;;;;;48.22;5.68;;;;;;;5.86;98.14;100498.66;5011014;28;20613;-79
2022/02/18 04:38:32;;;;;;;44.75;7.10;;;;;;;5.87;97.93;100485.34;5013098;28;20121;-77
2022/02/18 04:40:58;;;;;;;45.53;6.53;;;;;;;5.87;97.92;100485.34;5012760;28;20117;-77
2022/02/18 04:43:24;;;;;;;49.30;6.13;;;;;;;5.89;97.74;100469.38;5013291;28;20049;-77
2022/02/18 04:45:50;;;;;;;39.85;6.80;;;;;;;5.93;97.54;100450.53;5012610;28;20068;-79
2022/02/18 04:48:15;;;;;;;42.95;6.22;;;;;;;5.96;97.33;100433.63;5012884;28;20490;-77
2022/02/18 04:50:40;;;;;;;42.10;6.28;;;;;;;5.96;96.94;100428.34;5012773;28;20034;-78
2022/02/18 04:53:06;;;;;;;41.28;6.32;;;;;;;5.97;96.72;100412.41;5012982;28;20038;-78
2022/02/18 04:55:31;;;;;;;31.67;5.28;;;;;;;5.96;96.38;100399.28;5011508;28;20029;-77
2022/02/18 04:57:56;;;;;;;31.52;6.07;;;;;;;5.96;96.31;100401.94;5013016;28;20061;-80
2022/02/18 05:00:22;;;;;;;41.58;6.10;;;;;;;5.96;96.23;100407.22;5012810;28;20042;-79
2022/02/18 05:02:48;;;;;;;56.58;8.68;;;;;;;5.98;96.19;100415.88;5011311;28;20392;-78
2022/02/18 05:05:13;;;;;;;41.00;6.25;;;;;;;6.02;95.58;100416.47;5012332;28;20068;-78
2022/02/18 05:07:39;;;;;;;44.33;6.30;;;;;;;6.01;95.36;100389.22;5012614;28;20427;-78
2022/02/18 05:10:06;;;;;;;45.85;6.75;;;;;;;6.03;95.35;100375.91;5012760;28;20062;-78
2022/02/18 05:12:31;;;;;;;38.55;5.88;;;;;;;6.00;95.40;100367.28;5011782;28;20108;-78
2022/02/18 05:14:57;;;;;;;42.85;6.07;;;;;;;5.99;95.62;100359.47;5012416;28;20112;-78
2022/02/18 05:17:22;;;;;;;44.08;6.47;;;;;;;5.98;95.80;100342.75;5011950;28;20034;-78
2022/02/18 05:19:48;;;;;;;42.38;5.75;;;;;;;5.98;95.72;100331.38;5011820;28;20037;-78
2022/02/18 05:22:13;;;;;;;53.05;8.63;;;;;;;5.97;96.12;100322.63;5012107;28;20054;-78
2022/02/18 05:24:38;;;;;;;44.22;6.60;;;;;;;5.99;96.14;100317.22;5012348;28;20477;-77
2022/02/18 05:27:04;;;;;;;49.35;7.82;;;;;;;5.98;95.80;100308.44;5012089;28;20034;-78
2022/02/18 05:29:30;;;;;;;47.83;6.45;;;;;;;5.96;96.10;100298.94;5011453;28;20040;-80
2022/02/18 05:31:56;;;;;;;44.83;7.53;;;;;;;5.97;95.95;100285.66;5011631;28;20042;-77
2022/02/18 05:34:21;;;;;;;38.15;6.95;;;;;;;5.95;95.73;100269.03;5012405;28;20108;-80
2022/02/18 05:36:46;;;;;;;41.60;6.22;;;;;;;5.95;95.56;100268.22;5011853;28;20041;-79
2022/02/18 05:39:12;;;;;;;45.33;6.68;;;;;;;5.99;95.15;100264.41;5011786;28;20108;-78
2022/02/18 05:41:38;;;;;;;32.50;5.43;;;;;;;6.02;94.67;100236.88;5011646;28;20033;-78
2022/02/18 05:44:03;;;;;;;42.47;5.50;;;;;;;6.02;94.35;100237.75;5011405;28;20084;-78
2022/02/18 05:46:29;;;;;;;44.13;5.60;;;;;;;6.03;94.16;100214.81;5011211;28;20054;-77
2022/02/18 05:48:54;;;;;;;36.60;5.10;;;;;;;6.06;93.47;100214.53;5011361;28;20074;-78
2022/02/18 05:51:19;;;;;;;29.15;4.55;;;;;;;6.06;93.32;100199.56;5011522;28;20030;-77
2022/02/18 05:53:45;;;;;;;35.40;5.03;;;;;;;6.06;93.25;100191.63;5009729;28;20033;-78
2022/02/18 05:56:10;;;;;;;37.97;5.25;;;;;;;6.03;93.18;100165.47;5010175;28;20037;-77
2022/02/18 05:58:35;;;;;;;25.92;4.25;;;;;;;6.00;93.28;100163.91;5011401;28;20448;-79
2022/02/18 06:01:01;;;;;;;31.67;4.72;;;;;;;6.03;92.85;100149.63;5011391;28;20125;-79
2022/02/18 06:03:26;;;;;;;34.75;5.55;;;;;;;6.06;92.44;100135.31;5011346;28;20077;-76
2022/02/18 06:05:52;;;;;;;31.05;4.22;;;;;;;6.07;92.50;100129.91;5010843;28;20129;-78
2022/02/18 06:08:17;;;;;;;29.27;5.80;;;;;;;6.07;92.70;100116.69;5009977;28;20030;-77
2022/02/18 06:10:43;;;;;;;28.73;5.43;;;;;;;6.06;93.05;100115.03;5010764;28;20107;-77
2022/02/18 06:13:08;;;;;;;34.83;5.13;;;;;;;6.04;94.01;100116.13;5010760;28;20042;-76
2022/02/18 06:15:34;;;;;;;35.65;5.72;;;;;;;5.95;95.43;100104.50;5010924;28;20469;-77
2022/02/18 06:17:59;;;;;;;34.97;6.45;;;;;;;5.83;96.94;100101.88;5010845;28;20486;-77
2022/02/18 06:20:25;;;;;;;31.05;5.38;;;;;;;5.75;98.04;100090.31;5010779;28;20041;-77
2022/02/18 06:22:50;;;;;;;30.52;5.38;;;;;;;5.69;98.83;100083.72;5010907;28;20525;-77
2022/02/18 06:25:16;;;;;;;38.13;6.30;;;;;;;5.63;99.80;100068.41;5010537;28;20439;-78
2022/02/18 06:27:42;;;;;;;34.20;7.05;;;;;;;5.58;100.00;100060.00;5010941;28;20034;-78
2022/02/18 06:30:08;;;;;;;32.63;6.68;;;;;;;5.55;100.00;100045.25;5010647;28;20088;-78
2022/02/18 06:32:34;;;;;;;35.22;7.28;;;;;;;5.55;100.00;100045.25;5010864;28;20037;-78
2022/02/18 06:34:59;;;;;;;34.90;7.45;;;;;;;5.53;100.00;100022.59;5010634;28;20038;-78
2022/02/18 06:37:24;;;;;;;43.60;8.68;;;;;;;5.54;100.00;100027.75;5010025;28;20041;-78
2022/02/18 06:39:50;;;;;;;44.00;8.50;;;;;;;5.55;100.00;100012.75;5010388;28;20116;-78
2022/02/18 06:42:16;;;;;;;42.08;9.80;;;;;;;5.58;100.00;100025.69;5025639;28;20030;-78
2022/02/18 06:44:41;;;;;;;37.92;8.98;;;;;;;5.58;100.00;100016.00;5025280;28;20058;-77
2022/02/18 06:47:07;;;;;;;39.38;9.48;;;;;;;5.60;100.00;100003.50;5010648;28;20501;-78
2022/02/18 06:49:33;;;;;;;43.42;11.27;;;;;;;5.59;100.00;100001.81;5010119;28;20026;-78
2022/02/18 06:51:58;;;;;;;38.08;10.20;;;;;;;5.62;100.00;99998.91;5010459;28;20033;-78
2022/02/18 06:54:28;;;;;;;39.13;11.02;;;;;;;5.68;100.00;99971.19;5009421;28;20385;-80
2022/02/18 06:56:54;;;;;;;39.78;12.02;;;;;;;5.73;100.00;99971.66;5009990;28;20482;-78
2022/02/18 06:59:20;;;;;;;35.75;12.57;;;;;;;5.79;100.00;99975.56;5009956;28;20485;-77
2022/02/18 07:01:54;;;;;;;41.20;13.85;;;;;;;5.83;100.00;99955.84;5010776;28;20045;-76
2022/02/18 07:04:24;;;;;;;37.10;12.70;;;;;;;5.90;100.00;99951.72;5010374;28;20061;-75
2022/02/18 07:06:50;;;;;;;37.40;13.80;;;;;;;5.92;100.00;99955.06;5010703;28;20101;-77
2022/02/18 07:09:15;;;;;;;37.65;14.40;;;;;;;5.95;100.00;99943.41;5010315;28;20049;-76
2022/02/18 07:11:41;;;;;;;38.38;14.75;;;;;;;5.99;100.00;99937.78;5010170;28;20093;-75
2022/02/18 07:14:09;;;;;;;38.63;13.82;;;;;;;6.00;100.00;99926.25;5009227;28;20041;-76
2022/02/18 07:16:35;;;;;;;38.35;14.35;;;;;;;5.98;100.00;99912.31;5009862;28;20407;-76
2022/02/18 07:19:00;;;;;;;36.20;14.05;;;;;;;6.01;100.00;99903.31;5010448;28;20118;-76
2022/02/18 07:21:26;;;;;;;31.67;13.27;;;;;;;6.06;100.00;99885.28;5010486;28;20185;-76
2022/02/18 07:23:51;;;;;;;34.70;13.80;;;;;;;6.05;100.00;99880.13;5010343;28;22143;-74
2022/02/18 07:26:17;;;;;;;33.42;13.98;;;;;;;6.07;100.00;99875.53;5009181;28;20037;-75
2022/02/18 07:28:42;;;;;;;32.20;13.88;;;;;;;6.10;100.00;99864.69;5009735;28;20034;-75
2022/02/18 07:31:08;;;;;;;28.05;13.40;;;;;;;6.15;100.00;99867.75;5010187;28;20037;-76
2022/02/18 07:33:33;;;;;;;30.77;12.48;;;;;;;6.20;100.00;99860.28;5010482;28;20095;-76
2022/02/18 07:35:58;;;;;;;40.83;13.15;;;;;;;6.23;100.00;99854.72;5010081;28;20117;-76
2022/02/18 07:38:24;;;;;;;35.60;13.20;;;;;;;6.29;100.00;99854.19;5010061;28;20034;-76
2022/02/18 07:40:49;;;;;;;28.20;12.38;;;;;;;6.38;100.00;99857.00;5008523;28;20119;-74
2022/02/18 07:43:15;;;;;;;35.83;13.23;;;;;;;6.43;100.00;99841.56;5008871;28;20030;-76
2022/02/18 07:45:40;;;;;;;28.48;13.95;;;;;;;6.45;100.00;99848.38;5010092;28;20061;-76
2022/02/18 07:48:06;;;;;;;31.52;12.88;;;;;;;6.51;100.00;99823.22;5010028;28;20548;-76
2022/02/18 07:50:31;;;;;;;40.58;13.98;;;;;;;6.59;100.00;99825.19;5009921;28;20614;-76
2022/02/18 07:52:56;;;;;;;34.22;14.23;;;;;;;6.61;100.00;99804.72;5009866;28;20040;-78
2022/02/18 07:55:22;;;;;;;31.52;13.43;;;;;;;6.65;100.00;99800.81;5009528;28;20470;-77
2022/02/18 07:57:51;;;;;;;36.35;15.60;;;;;;;6.69;100.00;99795.13;5009638;28;20030;-76
2022/02/18 08:00:16;;;;;;;35.28;13.55;;;;;;;6.70;100.00;99796.81;5009612;28;20077;-76
2022/02/18 08:02:42;;;;;;;32.75;13.93;;;;;;;6.77;100.00;99783.84;5008633;28;20038;-77
2022/02/18 08:05:08;;;;;;;30.50;13.35;;;;;;;6.80;100.00;99783.56;5009818;28;20465;-82
2022/02/18 08:07:34;;;;;;;36.20;14.73;;;;;;;6.84;100.00;99778.84;5008484;28;20408;-79
2022/02/18 08:09:59;;;;;;;30.35;12.93;;;;;;;6.92;100.00;99764.91;5009280;28;20121;-74
2022/02/18 08:12:24;;;;;;;26.83;11.00;;;;;;;6.97;100.00;99758.22;5011898;28;20037;-74
2022/02/18 08:14:50;;;;;;;35.80;12.02;;;;;;;7.00;100.00;99757.94;5011763;28;20061;-75
2022/02/18 08:17:15;;;;;;;21.05;10.88;;;;;;;7.09;100.00;99750.97;5011962;28;20088;-73
2022/02/18 08:19:41;;;;;;;27.60;11.07;;;;;;;7.11;100.00;99748.19;5012773;28;20040;-74
2022/02/18 08:22:07;;;;;;;26.15;10.80;;;;;;;7.15;100.00;99733.66;5012705;28;20052;-75
2022/02/18 08:24:32;;;;;;;31.73;10.90;;;;;;;7.19;100.00;99719.16;5011600;28;20121;-76
2022/02/18 08:26:59;;;;;;;30.90;10.60;;;;;;;7.22;100.00;99729.47;5012619;28;20076;-77
2022/02/18 08:29:25;;;;;;;24.00;9.98;;;;;;;7.27;100.00;99713.16;5013132;28;20062;-79
2022/02/18 08:31:52;;;;;;;29.27;9.35;;;;;;;7.31;100.00;99720.66;5012997;28;20418;-79
2022/02/18 08:34:17;;;;;;;22.23;8.68;;;;;;;7.37;100.00;99713.94;5012969;28;20038;-79
2022/02/18 08:36:43;;;;;;;24.60;8.18;;;;;;;7.43;100.00;99688.72;5012503;28;20103;-76
2022/02/18 08:39:09;;;;;;;19.75;8.20;;;;;;;7.44;100.00;99696.50;5011117;28;20185;-77
2022/02/18 08:41:36;;;;;;;16.95;7.50;;;;;;;7.54;100.00;99702.59;5012421;28;20066;-76
2022/02/18 08:44:03;;;;;;;14.70;6.78;;;;;;;7.61;100.00;99675.53;5012775;28;20041;-75
2022/02/18 08:46:30;;;;;;;18.38;6.63;;;;;;;7.68;100.00;99661.53;5012113;28;20054;-75
2022/02/18 08:48:56;;;;;;;27.35;7.60;;;;;;;7.68;100.00;99668.66;5012361;28;20034;-76
2022/02/18 08:51:22;;;;;;;18.33;6.25;;;;;;;7.69;100.00;99665.03;5012956;28;20109;-75
2022/02/18 08:53:48;;;;;;;18.45;5.88;;;;;;;7.73;100.00;99639.91;5011048;28;20080;-76
2022/02/18 08:56:14;;;;;;;13.38;5.57;;;;;;;7.82;100.00;99643.47;5012356;28;20038;-75
2022/02/18 08:58:39;;;;;;;16.30;5.50;;;;;;;7.82;100.00;99643.47;5012528;28;20033;-74
2022/02/18 09:01:05;;;;;;;15.65;5.05;;;;;;;7.89;100.00;99640.06;5012116;28;20062;-75
2022/02/18 09:03:31;;;;;;;14.80;5.18;;;;;;;7.93;100.00;99649.38;5012739;28;20370;-75
2022/02/18 09:05:56;;;;;;;17.48;4.25;;;;;;;8.00;100.00;99612.53;5012268;28;20026;-75
2022/02/18 09:08:24;;;;;;;12.38;4.18;;;;;;;8.09;100.00;99608.97;5011803;28;20455;-74
2022/02/18 09:10:52;;;;;;;10.05;4.07;;;;;;;8.19;100.00;99600.91;5012051;28;20439;-77
2022/02/18 09:13:20;;;;;;;12.77;4.28;;;;;;;8.26;100.00;99593.19;5012152;28;20038;-75
2022/02/18 09:15:46;;;;;;;12.70;3.97;;;;;;;8.29;100.00;99553.97;5011618;28;20059;-75
2022/02/18 09:18:12;;;;;;;7.03;3.05;;;;;;;8.35;100.00;99572.91;5011994;28;20438;-76
2022/02/18 09:20:38;;;;;;;10.93;3.40;;;;;;;8.41;100.00;99567.78;5011288;28;20037;-75
2022/02/18 09:23:03;;;;;;;10.45;3.03;;;;;;;8.53;100.00;99557.78;5011757;28;20091;-75
2022/02/18 09:25:29;;;;;;;7.40;2.70;;;;;;;8.57;100.00;99547.69;5010455;28;20092;-74
2022/02/18 09:27:55;;;;;;;13.40;3.95;;;;;;;8.64;100.00;99540.78;5010169;28;20041;-75
2022/02/18 09:30:20;;;;;;;6.70;2.58;;;;;;;8.69;100.00;99541.13;5011888;28;20087;-75
2022/02/18 09:32:46;;;;;;;10.35;2.92;;;;;;;8.77;100.00;99530.56;5011634;28;20042;-73
2022/02/18 09:35:11;;;;;;;11.57;2.70;;;;;;;8.82;100.00;99525.63;5012017;28;20033;-75
2022/02/18 09:37:37;;;;;;;3.88;2.45;;;;;;;8.89;100.00;99517.84;5011673;28;20474;-74
2022/02/18 09:40:05;;;;;;;8.30;2.78;;;;;;;8.92;100.00;99517.50;5011515;28;20110;-73
2022/02/18 09:42:32;;;;;;;5.93;2.60;;;;;;;8.99;100.00;99509.75;5011492;28;20037;-73
2022/02/18 09:44:59;;;;;;;6.78;2.50;;;;;;;9.00;100.00;99506.09;5011112;28;20085;-74
2022/02/18 09:47:24;;;;;;;7.13;2.25;;;;;;;9.06;100.00;99501.97;5011290;28;20042;-76
2022/02/18 09:49:52;;;;;;;5.07;2.30;;;;;;;9.10;100.00;99503.31;5010059;28;20038;-77
2022/02/18 09:52:17;;;;;;;11.25;2.28;;;;;;;9.13;100.00;99490.53;5011619;28;20045;-76
2022/02/18 09:54:43;;;;;;;4.00;2.10;;;;;;;9.15;100.00;99485.06;5010197;28;20042;-77
2022/02/18 09:57:09;;;;;;;4.57;2.13;;;;;;;9.22;100.00;99461.38;5011489;28;20437;-78
2022/02/18 09:59:35;;;;;;;5.80;2.70;;;;;;;9.25;100.00;99472.47;5011138;28;20042;-76
2022/02/18 10:02:04;;;;;;;4.70;2.00;;;;;;;9.29;100.00;99462.38;5011217;28;20052;-75
2022/02/18 10:04:30;;;;;;;3.00;2.10;;;;;;;9.32;99.72;99460.22;5011345;28;20048;-74
2022/02/18 10:06:56;;;;;;;6.43;1.88;;;;;;;9.32;99.78;99454.09;5011294;28;20125;-73
2022/02/18 10:09:44;;;;;;;5.65;2.30;;;;;;;9.31;100.00;99447.13;5009841;28;20417;-73
2022/02/18 10:12:12;;;;;;;7.13;2.22;;;;;;;9.29;100.00;99439.31;5010891;28;20026;-76
2022/02/18 10:14:57;;;;;;;4.85;2.10;;;;;;;9.31;100.00;99441.81;5011346;28;20414;-74
2022/02/18 10:17:24;;;;;;;4.28;2.20;;;;;;;9.29;100.00;99438.50;5011359;28;20053;-73
2022/02/18 10:19:52;;;;;;;4.30;2.30;;;;;;;9.26;100.00;99438.84;5009443;28;20038;-76
2022/02/18 10:22:28;;;;;;;6.35;2.25;;;;;;;9.20;100.00;99424.38;5011274;28;20038;-75
2022/02/18 10:24:54;;;;;;;3.60;2.00;;;;;;;9.21;100.00;99430.50;5011271;28;20037;-75
2022/02/18 10:27:42;;;;;;;3.65;1.98;;;;;;;9.18;100.00;99421.91;5011043;28;20045;-74
2022/02/18 10:30:07;;;;;;;3.78;2.08;;;;;;;9.09;100.00;99406.97;5011107;28;20037;-74
2022/02/18 10:32:39;;;;;;;5.63;2.50;;;;;;;9.03;100.00;99397.00;5010537;28;20030;-74
2022/02/18 10:35:14;;;;;;;5.20;2.60;;;;;;;9.02;100.00;99382.09;5010942;28;20057;-74
2022/02/18 10:37:50;;;;;;;6.72;2.53;;;;;;;9.07;100.00;99379.75;5009925;28;20030;-74
2022/02/18 10:40:17;;;;;;;4.55;2.53;;;;;;;9.07;100.00;99363.84;5011169;28;20030;-72
2022/02/18 10:42:45;;;;;;;5.35;2.33;;;;;;;9.14;100.00;99364.03;5026006;28;20033;-74
2022/02/18 10:45:19;;;;;;;2.55;2.20;;;;;;;9.17;100.00;99356.53;5010519;28;20030;-73
2022/02/18 10:47:46;;;;;;;7.93;2.60;;;;;;;9.18;100.00;99344.94;5009399;28;20038;-73
2022/02/18 10:50:16;;;;;;;5.38;2.33;;;;;;;9.19;100.00;99337.81;5010724;28;20033;-73
2022/02/18 10:52:42;;;;;;;3.58;2.13;;;;;;;9.16;100.00;99323.03;5010709;28;20439;-73
2022/02/18 10:55:08;;;;;;;3.03;2.13;;;;;;;9.21;100.00;99324.38;5010718;28;20054;-74
2022/02/18 10:57:34;;;;;;;4.00;2.15;;;;;;;9.22;100.00;99329.50;5010646;28;20058;-73
2022/02/18 11:00:10;;;;;;;2.90;2.45;;;;;;;9.24;100.00;99308.09;5008589;28;20085;-75
2022/02/18 11:02:45;;;;;;;3.65;1.98;;;;;;;9.23;100.00;99309.13;5025631;28;20033;-78
2022/02/18 11:05:28;;;;;;;2.28;1.92;;;;;;;9.23;100.00;99314.44;5009035;28;20351;-79
2022/02/18 11:07:53;;;;;;;2.83;2.10;;;;;;;9.27;100.00;99297.16;5010421;28;20049;-78
2022/02/18 11:10:29;;;;;;;2.38;2.17;;;;;;;9.24;100.00;99322.22;5009956;28;20030;-74
2022/02/18 11:12:56;;;;;;;4.28;2.20;;;;;;;9.21;100.00;99337.63;5010051;28;20046;-77
2022/02/18 11:15:22;;;;;;;6.70;1.92;;;;;;;9.07;100.00;99345.25;5008534;28;20179;-78
2022/02/18 11:17:52;;;;;;;6.53;1.70;;;;;;;8.88;100.00;99341.09;5008843;28;20099;-79
2022/02/18 11:20:18;;;;;;;9.68;1.60;;;;;;;8.61;98.90;99319.22;5009913;28;20030;-78